createdAt,value
2023-05-24T00:00:04.316Z,16.4
2023-05-24T00:02:03.130Z,16.4
2023-05-24T00:04:02.279Z,16.3
2023-05-24T00:06:02.125Z,16.2
2023-05-24T00:08:02.082Z,16.2
2023-05-24T00:10:02.452Z,16.2
2023-05-24T00:12:02.614Z,16.1
2023-05-24T00:14:02.661Z,16.1
2023-05-24T00:16:02.298Z,16.0
2023-05-24T00:18:02.335Z,15.9
2023-05-24T00:20:03.836Z,15.9
2023-05-24T00:22:02.293Z,15.9
2023-05-24T00:24:02.239Z,15.9
2023-05-24T00:26:02.688Z,15.9
2023-05-24T00:28:02.925Z,16.0
2023-05-24T00:30:02.277Z,16.0
2023-05-24T00:32:02.190Z,16.1
2023-05-24T00:34:03.054Z,16.2
2023-05-24T00:36:02.091Z,16.2
2023-05-24T00:38:02.745Z,16.2
2023-05-24T00:40:02.365Z,16.2
2023-05-24T00:42:03.382Z,16.2
2023-05-24T00:44:02.446Z,16.2
2023-05-24T00:46:15.720Z,16.2
2023-05-24T00:48:02.496Z,16.2
2023-05-24T00:50:03.288Z,16.3
2023-05-24T00:52:18.147Z,16.3
2023-05-24T00:54:03.643Z,16.2
2023-05-24T00:56:04.114Z,16.2
2023-05-24T00:58:03.306Z,16.2
2023-05-24T01:00:04.331Z,16.2
2023-05-24T01:02:03.216Z,16.1
2023-05-24T01:04:05.054Z,16.1
2023-05-24T01:06:06.797Z,16.1
2023-05-24T01:08:14.420Z,16.1
2023-05-24T01:10:14.415Z,16.1
2023-05-24T01:12:15.627Z,16.1
2023-05-24T01:14:13.736Z,15.9
2023-05-24T01:16:10.796Z,15.9
2023-05-24T01:18:07.197Z,15.9
2023-05-24T01:20:07.779Z,15.8
2023-05-24T01:22:14.066Z,15.8
2023-05-24T01:24:14.145Z,15.7
2023-05-24T01:26:20.610Z,15.7
2023-05-24T01:28:03.750Z,15.7
2023-05-24T01:30:04.688Z,15.7
2023-05-24T01:32:03.515Z,15.7
2023-05-24T01:34:03.012Z,15.7
2023-05-24T01:36:02.548Z,15.7
2023-05-24T01:38:02.754Z,15.7
2023-05-24T01:40:04.048Z,15.6
2023-05-24T01:42:11.643Z,15.6
2023-05-24T01:44:10.398Z,15.6
2023-05-24T01:46:11.835Z,15.6
2023-05-24T01:48:10.711Z,15.6
2023-05-24T01:50:14.526Z,15.6
2023-05-24T01:52:06.130Z,15.6
2023-05-24T01:54:05.385Z,15.4
2023-05-24T01:56:06.168Z,15.4
2023-05-24T01:58:06.141Z,15.4
2023-05-24T02:00:04.801Z,15.4
2023-05-24T02:02:02.949Z,15.4
2023-05-24T02:04:03.487Z,15.4
2023-05-24T02:06:03.565Z,15.4
2023-05-24T02:08:02.623Z,15.4
2023-05-24T02:10:03.667Z,15.3
2023-05-24T02:12:03.151Z,15.3
2023-05-24T02:14:02.917Z,15.3
2023-05-24T02:16:04.557Z,15.2
2023-05-24T02:18:03.503Z,15.2
2023-05-24T02:20:03.598Z,15.2
2023-05-24T02:22:04.943Z,15.1
2023-05-24T02:24:03.102Z,15.1
2023-05-24T02:26:04.244Z,15.0
2023-05-24T02:28:02.799Z,14.9
2023-05-24T02:30:02.774Z,14.9
2023-05-24T02:32:03.285Z,14.8
2023-05-24T02:34:03.338Z,14.8
2023-05-24T02:36:03.464Z,14.7
2023-05-24T02:38:06.032Z,14.7
2023-05-24T02:40:03.766Z,14.6
2023-05-24T02:42:04.240Z,14.6
2023-05-24T02:44:03.096Z,14.6
2023-05-24T02:46:03.632Z,14.6
2023-05-24T02:48:03.096Z,14.5
2023-05-24T02:50:04.028Z,14.4
2023-05-24T02:52:03.882Z,14.4
2023-05-24T02:54:03.689Z,14.4
2023-05-24T02:56:02.431Z,14.3
2023-05-24T02:58:02.739Z,14.3
2023-05-24T03:00:02.763Z,14.3
2023-05-24T03:02:03.002Z,14.3
2023-05-24T03:04:03.554Z,14.3
2023-05-24T03:06:03.123Z,14.2
2023-05-24T03:08:02.507Z,14.2
2023-05-24T03:10:04.566Z,14.2
2023-05-24T03:12:03.298Z,14.1
2023-05-24T03:14:03.233Z,14.1
2023-05-24T03:16:03.309Z,14.1
2023-05-24T03:18:02.665Z,14.1
2023-05-24T03:20:05.325Z,14.0
2023-05-24T03:22:02.646Z,14.0
2023-05-24T03:24:02.690Z,13.9
2023-05-24T03:26:03.616Z,13.9
2023-05-24T03:28:03.428Z,13.8
2023-05-24T03:30:05.721Z,13.8
2023-05-24T03:32:03.113Z,13.8
2023-05-24T03:34:02.487Z,13.8
2023-05-24T03:36:03.650Z,13.7
2023-05-24T03:38:02.680Z,13.7
2023-05-24T03:40:04.189Z,13.7
2023-05-24T03:42:02.546Z,13.7
2023-05-24T03:44:03.072Z,13.6
2023-05-24T03:46:03.327Z,13.6
2023-05-24T03:48:02.741Z,13.5
2023-05-24T03:50:02.742Z,13.5
2023-05-24T03:52:03.282Z,13.4
2023-05-24T03:54:03.139Z,13.4
2023-05-24T03:56:02.438Z,13.4
2023-05-24T03:58:02.912Z,13.3
2023-05-24T04:00:03.026Z,13.3
2023-05-24T04:02:03.003Z,13.3
2023-05-24T04:04:03.175Z,13.2
2023-05-24T04:06:03.064Z,13.3
2023-05-24T04:08:02.508Z,13.2
2023-05-24T04:10:02.720Z,13.2
2023-05-24T04:12:02.895Z,13.2
2023-05-24T04:14:04.101Z,13.2
2023-05-24T04:16:03.792Z,13.2
2023-05-24T04:18:03.297Z,13.1
2023-05-24T04:20:04.701Z,13.1
2023-05-24T04:22:03.024Z,13.1
2023-05-24T04:24:03.403Z,13.1
2023-05-24T04:26:02.526Z,13.1
2023-05-24T04:28:03.337Z,13.1
2023-05-24T04:30:02.848Z,13.0
2023-05-24T04:32:03.266Z,13.0
2023-05-24T04:34:03.907Z,12.9
2023-05-24T04:36:02.851Z,12.9
2023-05-24T04:38:03.375Z,12.9
2023-05-24T04:40:04.123Z,12.9
2023-05-24T04:42:03.561Z,12.9
2023-05-24T04:44:02.664Z,12.9
2023-05-24T04:46:03.501Z,12.9
2023-05-24T04:48:02.485Z,12.8
2023-05-24T04:50:02.960Z,12.8
2023-05-24T04:52:02.835Z,12.8
2023-05-24T04:54:07.988Z,12.8
2023-05-24T04:56:03.134Z,12.8
2023-05-24T04:58:03.764Z,12.8
2023-05-24T05:00:04.189Z,12.8
2023-05-24T05:02:03.147Z,12.8
2023-05-24T05:04:04.286Z,12.8
2023-05-24T05:06:02.528Z,12.7
2023-05-24T05:08:03.867Z,12.7
2023-05-24T05:10:02.747Z,12.7
2023-05-24T05:12:03.246Z,12.7
2023-05-24T05:14:03.237Z,12.7
2023-05-24T05:16:03.003Z,12.7
2023-05-24T05:18:03.131Z,12.6
2023-05-24T05:20:03.739Z,12.6
2023-05-24T05:22:03.167Z,12.6
2023-05-24T05:24:03.573Z,12.6
2023-05-24T05:26:02.635Z,12.6
2023-05-24T05:28:03.129Z,12.6
2023-05-24T05:30:03.112Z,12.5
2023-05-24T05:32:02.486Z,12.5
2023-05-24T05:34:02.578Z,12.5
2023-05-24T05:36:03.023Z,12.5
2023-05-24T05:38:02.475Z,12.4
2023-05-24T05:40:04.177Z,12.4
2023-05-24T05:42:02.608Z,12.4
2023-05-24T05:44:02.433Z,12.4
2023-05-24T05:46:02.550Z,12.3
2023-05-24T05:48:02.534Z,12.3
2023-05-24T05:50:03.441Z,12.3
2023-05-24T05:52:04.259Z,12.3
2023-05-24T05:54:02.472Z,12.3
2023-05-24T05:56:02.504Z,12.3
2023-05-24T05:58:02.494Z,12.3
2023-05-24T06:00:03.322Z,12.2
2023-05-24T06:02:02.900Z,12.2
2023-05-24T06:04:02.807Z,12.2
2023-05-24T06:06:02.499Z,12.2
2023-05-24T06:08:02.473Z,12.2
2023-05-24T06:10:02.465Z,12.2
2023-05-24T06:12:02.465Z,12.2
2023-05-24T06:14:03.436Z,12.2
2023-05-24T06:16:02.675Z,12.2
2023-05-24T06:18:03.053Z,12.2
2023-05-24T06:20:11.369Z,12.2
2023-05-24T06:22:02.579Z,12.2
2023-05-24T06:24:02.453Z,12.2
2023-05-24T06:26:03.023Z,12.2
2023-05-24T06:28:02.647Z,12.2
2023-05-24T06:30:03.365Z,12.1
2023-05-24T06:32:02.518Z,12.1
2023-05-24T06:34:04.345Z,12.1
2023-05-24T06:36:02.469Z,12.1
2023-05-24T06:38:02.805Z,12.1
2023-05-24T06:40:05.638Z,12.1
2023-05-24T06:42:03.256Z,12.1
2023-05-24T06:44:02.510Z,12.1
2023-05-24T06:46:03.182Z,12.1
2023-05-24T06:48:02.604Z,12.0
2023-05-24T06:50:04.002Z,12.0
2023-05-24T06:52:02.718Z,12.0
2023-05-24T06:54:02.570Z,12.0
2023-05-24T06:56:02.686Z,11.9
2023-05-24T06:58:02.564Z,11.9
2023-05-24T07:00:06.217Z,11.9
2023-05-24T07:02:04.139Z,11.9
2023-05-24T07:04:02.841Z,11.9
2023-05-24T07:06:03.107Z,11.8
2023-05-24T07:08:02.519Z,11.9
2023-05-24T07:10:02.569Z,11.8
2023-05-24T07:12:02.484Z,11.9
2023-05-24T07:14:02.997Z,11.8
2023-05-24T07:16:02.780Z,11.8
2023-05-24T07:18:02.468Z,11.8
2023-05-24T07:20:03.429Z,11.8
2023-05-24T07:22:02.538Z,11.8
2023-05-24T07:24:03.612Z,11.8
2023-05-24T07:26:02.666Z,11.7
2023-05-24T07:28:02.883Z,11.7
2023-05-24T07:30:02.564Z,11.7
2023-05-24T07:32:03.436Z,11.7
2023-05-24T07:34:02.554Z,11.7
2023-05-24T07:36:04.255Z,11.6
2023-05-24T07:38:02.661Z,11.6
2023-05-24T07:40:03.150Z,11.6
2023-05-24T07:42:02.439Z,11.5
2023-05-24T07:44:02.522Z,11.6
2023-05-24T07:46:02.705Z,11.5
2023-05-24T07:48:02.760Z,11.5
2023-05-24T07:50:04.301Z,11.5
2023-05-24T07:52:03.798Z,11.4
2023-05-24T07:54:02.562Z,11.4
2023-05-24T07:56:02.516Z,11.4
2023-05-24T07:58:02.587Z,11.4
2023-05-24T08:00:09.791Z,11.4
2023-05-24T08:02:04.985Z,11.3
2023-05-24T08:04:03.499Z,11.3
2023-05-24T08:06:03.466Z,11.3
2023-05-24T08:08:02.620Z,11.3
2023-05-24T08:10:03.305Z,11.3
2023-05-24T08:12:04.041Z,11.3
2023-05-24T08:14:03.413Z,11.3
2023-05-24T08:16:03.100Z,11.3
2023-05-24T08:18:02.851Z,11.3
2023-05-24T08:20:05.901Z,11.2
2023-05-24T08:22:04.325Z,11.2
2023-05-24T08:24:02.644Z,11.2
2023-05-24T08:26:03.237Z,11.2
2023-05-24T08:28:02.769Z,11.2
2023-05-24T08:30:03.713Z,11.2
2023-05-24T08:32:03.531Z,11.2
2023-05-24T08:34:02.852Z,11.2
2023-05-24T08:36:03.194Z,11.2
2023-05-24T08:38:02.998Z,11.2
2023-05-24T08:40:03.920Z,11.2
2023-05-24T08:42:09.899Z,11.2
2023-05-24T08:44:05.216Z,11.2
2023-05-24T08:46:05.249Z,11.1
2023-05-24T08:48:03.769Z,11.1
2023-05-24T08:50:04.572Z,11.1
2023-05-24T08:52:03.318Z,11.1
2023-05-24T08:54:05.267Z,11.1
2023-05-24T08:56:03.426Z,11.1
2023-05-24T08:58:02.994Z,11.1
2023-05-24T09:00:02.637Z,11.1
2023-05-24T09:02:04.438Z,11.1
2023-05-24T09:04:04.708Z,11.1
2023-05-24T09:06:03.786Z,11.0
2023-05-24T09:08:03.409Z,11.1
2023-05-24T09:10:07.549Z,11.0
2023-05-24T09:12:05.204Z,11.0
2023-05-24T09:14:03.983Z,11.0
2023-05-24T09:16:03.464Z,10.9
2023-05-24T09:18:02.599Z,10.9
2023-05-24T09:20:06.261Z,10.9
2023-05-24T09:22:02.669Z,10.9
2023-05-24T09:24:03.633Z,10.9
2023-05-24T09:26:07.839Z,10.9
2023-05-24T09:28:07.674Z,10.8
2023-05-24T09:30:04.700Z,10.8
2023-05-24T09:32:04.059Z,10.8
2023-05-24T09:34:02.608Z,10.8
2023-05-24T09:36:04.049Z,10.8
2023-05-24T09:38:03.366Z,10.8
2023-05-24T09:40:06.316Z,10.8
2023-05-24T09:42:03.137Z,10.8
2023-05-24T09:44:03.537Z,10.8
2023-05-24T09:46:04.211Z,10.8
2023-05-24T09:48:10.179Z,10.8
2023-05-24T09:50:06.191Z,10.7
2023-05-24T09:52:02.861Z,10.7
2023-05-24T09:54:03.785Z,10.7
2023-05-24T09:56:04.479Z,10.7
2023-05-24T09:58:03.715Z,10.7
2023-05-24T10:00:13.870Z,10.7
2023-05-24T10:02:11.872Z,10.7
2023-05-24T10:04:08.909Z,10.7
2023-05-24T10:06:06.743Z,10.6
2023-05-24T10:08:04.634Z,10.6
2023-05-24T10:10:07.408Z,10.6
2023-05-24T10:12:04.603Z,10.6
2023-05-24T10:14:05.448Z,10.6
2023-05-24T10:16:03.204Z,10.6
2023-05-24T10:18:09.014Z,10.5
2023-05-24T10:20:06.195Z,10.5
2023-05-24T10:22:08.322Z,10.5
2023-05-24T10:24:03.514Z,10.5
2023-05-24T10:26:06.098Z,10.4
2023-05-24T10:28:08.946Z,10.4
2023-05-24T10:30:13.719Z,10.4
2023-05-24T10:32:04.108Z,10.4
2023-05-24T10:34:08.214Z,10.4
2023-05-24T10:36:04.485Z,10.4
2023-05-24T10:38:07.064Z,10.4
2023-05-24T10:40:04.894Z,10.4
2023-05-24T10:42:03.811Z,10.3
2023-05-24T10:44:09.497Z,10.3
2023-05-24T10:46:04.485Z,10.3
2023-05-24T10:48:09.482Z,10.3
2023-05-24T10:50:17.305Z,10.3
2023-05-24T10:52:08.182Z,10.3
2023-05-24T10:54:13.831Z,10.3
2023-05-24T10:56:08.885Z,10.3
2023-05-24T10:58:06.409Z,10.2
2023-05-24T11:00:35.193Z,10.2
2023-05-24T11:02:03.623Z,10.2
2023-05-24T11:04:15.218Z,10.2
2023-05-24T11:06:02.596Z,10.2
2023-05-24T11:08:03.488Z,10.2
2023-05-24T11:10:09.523Z,10.2
2023-05-24T11:12:06.733Z,10.2
2023-05-24T11:14:02.421Z,10.2
2023-05-24T11:16:03.411Z,10.1
2023-05-24T11:18:13.906Z,10.1
2023-05-24T11:20:04.551Z,10.1
2023-05-24T11:22:07.079Z,10.1
2023-05-24T11:24:03.773Z,10.1
2023-05-24T11:26:03.239Z,10.1
2023-05-24T11:28:03.898Z,10.1
2023-05-24T11:30:03.769Z,10.1
2023-05-24T11:32:04.035Z,10.1
2023-05-24T11:34:02.498Z,10.1
2023-05-24T11:36:02.521Z,10.1
2023-05-24T11:38:02.524Z,10.0
2023-05-24T11:40:05.819Z,10.0
2023-05-24T11:42:05.969Z,10.0
2023-05-24T11:44:03.337Z,10.0
2023-05-24T11:46:02.791Z,9.9
2023-05-24T11:48:05.912Z,10.0
2023-05-24T11:50:02.875Z,9.9
2023-05-24T11:52:04.001Z,9.9
2023-05-24T11:54:02.606Z,9.9
2023-05-24T11:56:04.588Z,9.9
2023-05-24T11:58:11.435Z,9.9
2023-05-24T12:00:02.516Z,9.9
2023-05-24T12:02:05.154Z,9.9
2023-05-24T12:04:02.673Z,9.9
2023-05-24T12:06:02.441Z,9.9
2023-05-24T12:08:05.307Z,9.9
2023-05-24T12:10:03.754Z,9.9
2023-05-24T12:12:02.840Z,9.9
2023-05-24T12:14:03.188Z,9.8
2023-05-24T12:16:02.897Z,9.9
2023-05-24T12:18:02.565Z,9.8
2023-05-24T12:20:05.555Z,9.8
2023-05-24T12:22:04.828Z,9.8
2023-05-24T12:24:09.705Z,9.8
2023-05-24T12:26:03.425Z,9.8
2023-05-24T12:28:03.467Z,9.8
2023-05-24T12:30:09.446Z,9.8
2023-05-24T12:32:02.658Z,9.8
2023-05-24T12:34:03.369Z,9.7
2023-05-24T12:36:02.855Z,9.7
2023-05-24T12:38:02.456Z,9.8
2023-05-24T12:40:04.680Z,9.7
2023-05-24T12:42:04.027Z,9.7
2023-05-24T12:44:03.142Z,9.7
2023-05-24T12:46:02.853Z,9.7
2023-05-24T12:48:04.429Z,9.8
2023-05-24T12:50:03.359Z,9.7
2023-05-24T12:52:02.830Z,9.8
2023-05-24T12:54:04.404Z,9.8
2023-05-24T12:56:03.102Z,9.7
2023-05-24T12:58:05.700Z,9.7
2023-05-24T13:00:03.448Z,9.7
2023-05-24T13:02:02.716Z,9.7
2023-05-24T13:04:02.995Z,9.7
2023-05-24T13:06:02.530Z,9.7
2023-05-24T13:08:03.391Z,9.7
2023-05-24T13:10:03.112Z,9.7
2023-05-24T13:12:03.121Z,9.7
2023-05-24T13:14:04.091Z,9.7
2023-05-24T13:16:05.005Z,9.7
2023-05-24T13:18:02.510Z,9.7
2023-05-24T13:20:07.112Z,9.7
2023-05-24T13:22:02.452Z,9.7
2023-05-24T13:24:03.950Z,9.8
2023-05-24T13:26:03.469Z,9.8
2023-05-24T13:28:02.764Z,9.8
2023-05-24T13:30:04.184Z,9.8
2023-05-24T13:32:02.412Z,9.8
2023-05-24T13:34:02.562Z,9.8
2023-05-24T13:36:02.822Z,9.9
2023-05-24T13:38:02.470Z,9.9
2023-05-24T13:40:03.659Z,9.9
2023-05-24T13:42:02.903Z,9.9
2023-05-24T13:44:03.021Z,9.9
2023-05-24T13:46:03.180Z,10.0
2023-05-24T13:48:03.417Z,10.0
2023-05-24T13:50:03.555Z,10.1
2023-05-24T13:52:03.228Z,10.1
2023-05-24T13:54:04.290Z,10.1
2023-05-24T13:56:03.773Z,10.1
2023-05-24T13:58:04.483Z,10.2
2023-05-24T14:00:02.978Z,10.2
2023-05-24T14:02:03.074Z,10.2
2023-05-24T14:04:03.635Z,10.3
2023-05-24T14:06:02.778Z,10.3
2023-05-24T14:08:05.889Z,10.4
2023-05-24T14:10:02.819Z,10.4
2023-05-24T14:12:03.885Z,10.5
2023-05-24T14:16:02.767Z,10.6
2023-05-24T14:18:06.972Z,10.7
2023-05-24T14:20:02.810Z,10.7
2023-05-24T14:22:02.656Z,10.8
2023-05-24T14:24:03.761Z,10.8
2023-05-24T14:26:03.255Z,10.9
2023-05-24T14:28:03.338Z,10.9
2023-05-24T14:30:02.555Z,11.0
2023-05-24T14:32:02.701Z,11.0
2023-05-24T14:34:02.694Z,11.1
2023-05-24T14:36:02.684Z,11.1
2023-05-24T14:38:02.464Z,11.1
2023-05-24T14:40:03.045Z,11.1
2023-05-24T14:42:02.477Z,11.1
2023-05-24T14:44:02.964Z,11.2
2023-05-24T14:46:02.625Z,11.2
2023-05-24T14:48:02.669Z,11.2
2023-05-24T14:50:02.573Z,11.3
2023-05-24T14:52:03.513Z,11.4
2023-05-24T14:54:02.557Z,11.4
2023-05-24T14:56:04.411Z,11.5
2023-05-24T14:58:02.492Z,11.6
2023-05-24T15:00:02.894Z,11.7
2023-05-24T15:02:02.471Z,11.8
2023-05-24T15:04:03.079Z,11.8
2023-05-24T15:06:03.071Z,12.0
2023-05-24T15:08:02.679Z,12.1
2023-05-24T15:10:02.500Z,12.3
2023-05-24T15:12:04.479Z,12.6
2023-05-24T15:14:02.981Z,12.8
2023-05-24T15:16:02.715Z,12.9
2023-05-24T15:18:03.651Z,13.1
2023-05-24T15:20:02.510Z,13.4
2023-05-24T15:22:03.200Z,13.6
2023-05-24T15:24:03.723Z,13.7
2023-05-24T15:26:02.573Z,13.7
2023-05-24T15:28:03.139Z,13.6
2023-05-24T15:30:02.713Z,13.4
2023-05-24T15:32:02.606Z,13.3
2023-05-24T15:34:04.311Z,13.3
2023-05-24T15:36:03.224Z,13.3
2023-05-24T15:38:02.541Z,13.2
2023-05-24T15:40:02.759Z,13.1
2023-05-24T15:42:03.206Z,13.2
2023-05-24T15:44:07.934Z,13.2
2023-05-24T15:46:02.548Z,13.2
2023-05-24T15:48:04.123Z,13.4
2023-05-24T15:50:04.047Z,13.5
2023-05-24T15:52:04.701Z,13.7
2023-05-24T15:54:04.324Z,13.9
2023-05-24T15:56:02.491Z,14.2
2023-05-24T15:58:02.570Z,14.5
2023-05-24T16:00:03.362Z,14.8
2023-05-24T16:02:02.792Z,14.9
2023-05-24T16:04:02.886Z,14.9
2023-05-24T16:06:03.610Z,15.1
2023-05-24T16:08:03.143Z,15.2
2023-05-24T16:10:03.484Z,15.3
2023-05-24T16:12:02.696Z,15.5
2023-05-24T16:14:03.009Z,15.4
2023-05-24T16:16:02.925Z,15.3
2023-05-24T16:18:03.904Z,15.3
2023-05-24T16:20:02.548Z,15.2
2023-05-24T16:22:03.831Z,15.1
2023-05-24T16:24:04.795Z,15.1
2023-05-24T16:26:02.468Z,15.1
2023-05-24T16:28:03.356Z,15.1
2023-05-24T16:30:02.809Z,15.1
2023-05-24T16:32:03.204Z,15.3
2023-05-24T16:34:03.112Z,15.5
2023-05-24T16:36:04.101Z,15.7
2023-05-24T16:38:02.486Z,16.0
2023-05-24T16:40:04.501Z,16.2
2023-05-24T16:42:03.240Z,16.2
2023-05-24T16:44:02.510Z,16.2
2023-05-24T16:46:02.524Z,16.1
2023-05-24T16:48:03.096Z,16.1
2023-05-24T16:50:03.301Z,15.9
2023-05-24T16:52:03.956Z,15.8
2023-05-24T16:54:02.634Z,15.7
2023-05-24T16:56:02.990Z,15.4
2023-05-24T16:58:02.962Z,15.3
2023-05-24T17:00:03.569Z,15.3
2023-05-24T17:02:02.544Z,15.2
2023-05-24T17:04:03.432Z,15.1
2023-05-24T17:06:04.521Z,15.2
2023-05-24T17:08:02.444Z,15.2
2023-05-24T17:10:03.105Z,15.1
2023-05-24T17:12:03.132Z,15.2
2023-05-24T17:14:02.765Z,15.2
2023-05-24T17:16:03.809Z,15.3
2023-05-24T17:18:02.551Z,15.4
2023-05-24T17:20:02.714Z,15.7
2023-05-24T17:22:05.198Z,15.9
2023-05-24T17:24:02.576Z,16.1
2023-05-24T17:26:03.284Z,16.3
2023-05-24T17:28:03.655Z,16.6
2023-05-24T17:30:02.470Z,16.8
2023-05-24T17:32:02.546Z,17.1
2023-05-24T17:34:02.767Z,17.2
2023-05-24T17:36:05.522Z,17.3
2023-05-24T17:38:02.475Z,17.3
2023-05-24T17:40:03.255Z,17.2
2023-05-24T17:42:02.518Z,17.1
2023-05-24T17:44:04.146Z,16.9
2023-05-24T17:46:05.897Z,16.6
2023-05-24T17:48:03.739Z,16.4
2023-05-24T17:50:02.574Z,16.2
2023-05-24T17:52:03.590Z,15.9
2023-05-24T17:54:02.467Z,15.8
2023-05-24T17:56:04.108Z,15.7
2023-05-24T17:58:03.360Z,15.6
2023-05-24T18:00:02.629Z,15.7
2023-05-24T18:02:02.571Z,16.1
2023-05-24T18:04:03.421Z,16.5
2023-05-24T18:06:03.583Z,16.8
2023-05-24T18:08:02.849Z,16.9
2023-05-24T18:10:02.784Z,16.9
2023-05-24T18:12:02.630Z,16.9
2023-05-24T18:14:03.240Z,16.8
2023-05-24T18:16:03.515Z,16.9
2023-05-24T18:18:03.316Z,16.9
2023-05-24T18:20:02.880Z,17.1
2023-05-24T18:22:02.691Z,17.6
2023-05-24T18:24:02.532Z,17.6
2023-05-24T18:26:06.139Z,17.6
2023-05-24T18:28:03.508Z,17.3
2023-05-24T18:30:03.540Z,16.8
2023-05-24T18:32:02.536Z,17.1
2023-05-24T18:34:03.686Z,17.3
2023-05-24T18:36:04.802Z,18.1
2023-05-24T18:38:02.786Z,18.1
2023-05-24T18:40:04.087Z,18.3
2023-05-24T18:42:02.789Z,18.1
2023-05-24T18:44:02.439Z,18.1
2023-05-24T18:46:02.574Z,17.9
2023-05-24T18:48:02.882Z,17.3
2023-05-24T18:50:02.731Z,18.1
2023-05-24T18:52:03.355Z,17.7
2023-05-24T18:54:02.443Z,17.8
2023-05-24T18:56:03.165Z,18.4
2023-05-24T18:58:02.935Z,18.4
2023-05-24T19:00:04.193Z,18.2
2023-05-24T19:02:03.105Z,18.1
2023-05-24T19:04:02.725Z,18.1
2023-05-24T19:06:02.432Z,18.0
2023-05-24T19:08:02.485Z,17.9
2023-05-24T19:10:03.441Z,17.8
2023-05-24T19:12:04.045Z,17.8
2023-05-24T19:14:03.129Z,17.8
2023-05-24T19:16:03.300Z,17.8
2023-05-24T19:18:03.663Z,17.7
2023-05-24T19:20:03.081Z,17.6
2023-05-24T19:22:02.758Z,17.8
2023-05-24T19:24:02.658Z,17.8
2023-05-24T19:26:02.916Z,18.1
2023-05-24T19:28:03.216Z,18.2
2023-05-24T19:30:04.690Z,18.3
2023-05-24T19:32:02.715Z,18.2
2023-05-24T19:34:03.501Z,18.0
2023-05-24T19:36:03.090Z,17.9
2023-05-24T19:38:02.502Z,17.6
2023-05-24T19:40:03.185Z,17.9
2023-05-24T19:42:02.537Z,18.7
2023-05-24T19:44:02.463Z,18.8
2023-05-24T19:46:05.152Z,18.7
2023-05-24T19:48:04.353Z,18.6
2023-05-24T19:50:02.569Z,19.2
2023-05-24T19:52:02.925Z,18.8
2023-05-24T19:54:02.451Z,19.2
2023-05-24T19:56:03.053Z,19.4
2023-05-24T19:58:03.248Z,19.1
2023-05-24T20:00:03.545Z,19.0
2023-05-24T20:02:02.587Z,18.9
2023-05-24T20:04:03.178Z,18.7
2023-05-24T20:06:02.404Z,18.4
2023-05-24T20:08:02.488Z,18.2
2023-05-24T20:10:04.981Z,18.0
2023-05-24T20:12:03.895Z,17.9
2023-05-24T20:14:02.796Z,17.9
2023-05-24T20:16:02.948Z,18.0
2023-05-24T20:18:02.539Z,18.0
2023-05-24T20:20:03.100Z,18.2
2023-05-24T20:22:03.041Z,18.4
2023-05-24T20:24:02.494Z,18.5
2023-05-24T20:26:03.454Z,18.5
2023-05-24T20:28:03.202Z,18.6
2023-05-24T20:30:02.589Z,18.8
2023-05-24T20:32:03.375Z,18.9
2023-05-24T20:34:02.900Z,19.0
2023-05-24T20:36:02.447Z,19.0
2023-05-24T20:38:02.617Z,18.8
2023-05-24T20:40:04.747Z,18.6
2023-05-24T20:42:03.017Z,18.4
2023-05-24T20:44:02.666Z,18.6
2023-05-24T20:46:02.727Z,18.4
2023-05-24T20:48:02.631Z,18.6
2023-05-24T20:50:03.383Z,18.4
2023-05-24T20:52:03.160Z,18.4
2023-05-24T20:54:04.819Z,18.7
2023-05-24T20:56:02.847Z,18.8
2023-05-24T20:58:02.707Z,19.1
2023-05-24T21:00:03.498Z,19.1
2023-05-24T21:02:02.762Z,19.1
2023-05-24T21:04:02.529Z,19.1
2023-05-24T21:06:03.511Z,19.4
2023-05-24T21:08:02.716Z,19.3
2023-05-24T21:10:03.235Z,19.4
2023-05-24T21:12:02.954Z,19.7
2023-05-24T21:14:03.222Z,19.8
2023-05-24T21:16:03.248Z,19.7
2023-05-24T21:18:03.837Z,19.6
2023-05-24T21:20:03.506Z,19.4
2023-05-24T21:22:03.367Z,19.3
2023-05-24T21:24:02.921Z,19.3
2023-05-24T21:26:03.138Z,19.4
2023-05-24T21:28:03.154Z,19.6
2023-05-24T21:30:03.314Z,19.7
2023-05-24T21:32:02.444Z,19.8
2023-05-24T21:34:03.226Z,19.8
2023-05-24T21:36:02.749Z,19.8
2023-05-24T21:38:03.240Z,19.7
2023-05-24T21:40:02.791Z,19.7
2023-05-24T21:42:02.658Z,19.7
2023-05-24T21:44:03.407Z,19.7
2023-05-24T21:46:02.703Z,19.6
2023-05-24T21:48:02.994Z,19.6
2023-05-24T21:50:03.216Z,19.6
2023-05-24T21:52:02.601Z,19.5
2023-05-24T21:54:02.727Z,19.6
2023-05-24T21:56:02.565Z,19.6
2023-05-24T21:58:02.706Z,19.6
2023-05-24T22:00:03.629Z,19.6
2023-05-24T22:02:02.776Z,19.4
2023-05-24T22:04:02.702Z,19.2
2023-05-24T22:06:03.304Z,19.1
2023-05-24T22:08:03.130Z,19.0
2023-05-24T22:10:03.391Z,19.0
2023-05-24T22:12:03.217Z,19.1
2023-05-24T22:14:03.626Z,19.1
2023-05-24T22:16:02.494Z,19.2
2023-05-24T22:18:03.011Z,19.2
2023-05-24T22:20:05.363Z,19.3
2023-05-24T22:22:04.122Z,19.3
2023-05-24T22:24:02.715Z,19.3
2023-05-24T22:26:02.476Z,19.3
2023-05-24T22:28:02.496Z,19.4
2023-05-24T22:30:02.811Z,19.4
2023-05-24T22:32:02.493Z,19.3
2023-05-24T22:34:03.307Z,19.3
2023-05-24T22:36:04.630Z,19.3
2023-05-24T22:38:02.656Z,19.3
2023-05-24T22:40:03.765Z,19.2
2023-05-24T22:42:03.084Z,19.2
2023-05-24T22:44:02.684Z,19.1
2023-05-24T22:46:02.773Z,19.2
2023-05-24T22:48:02.782Z,19.2
2023-05-24T22:50:03.460Z,19.2
2023-05-24T22:52:04.704Z,19.3
2023-05-24T22:54:02.630Z,19.2
2023-05-24T22:56:03.106Z,19.3
2023-05-24T22:58:02.791Z,19.2
2023-05-24T23:00:04.928Z,19.2
2023-05-24T23:02:02.444Z,19.3
2023-05-24T23:04:18.891Z,19.3
2023-05-24T23:06:03.703Z,19.4
2023-05-24T23:08:04.471Z,19.4
2023-05-24T23:10:03.469Z,19.4
2023-05-24T23:12:08.093Z,19.4
2023-05-24T23:14:07.874Z,19.4
2023-05-24T23:16:04.754Z,19.2
2023-05-24T23:18:05.049Z,19.1
2023-05-24T23:20:03.904Z,19.1
2023-05-24T23:22:03.260Z,19.1
2023-05-24T23:24:03.243Z,19.2
2023-05-24T23:26:02.524Z,19.3
2023-05-24T23:28:03.555Z,19.3
2023-05-24T23:30:03.363Z,19.3
2023-05-24T23:32:02.481Z,19.3
2023-05-24T23:34:02.580Z,19.3
2023-05-24T23:36:03.400Z,19.2
2023-05-24T23:38:03.096Z,19.1
2023-05-24T23:40:05.876Z,19.0
2023-05-24T23:42:03.004Z,18.9
2023-05-24T23:44:02.975Z,18.9
2023-05-24T23:46:03.216Z,18.9
2023-05-24T23:48:03.031Z,18.9
2023-05-24T23:50:03.373Z,19.1
2023-05-24T23:52:02.566Z,19.1
2023-05-24T23:54:03.066Z,19.1
2023-05-24T23:56:02.467Z,19.1
2023-05-24T23:58:03.447Z,19.1
